Time;durP1;ratioP1;P1;durP2;ratioP2;P2;SDS_P1;SDS_P2;PMS_P1;PMS_P2;Temp;Humidity;BMP_temperature;BMP_pressure;BME280_temperature;BME280_humidity;BME280_pressure;Samples;Min_cycle;Max_cycle;Signal;HPM_P1;HPM_P2
2022/03/04 00:01:53;;;;;;;;;68.25;55.00;;;;;36.39;16.80;101145.72;5084426;27;46584;-79
2022/03/04 00:04:19;;;;;;;;;65.00;51.50;;;;;35.84;17.08;101101.50;5098127;27;45571;-79
2022/03/04 00:06:44;;;;;;;;;66.75;53.00;;;;;36.06;16.63;101087.66;5092255;27;45281;-80
2022/03/04 00:09:09;;;;;;;;;68.00;52.50;;;;;36.21;16.39;101085.44;5080077;27;46300;-80
2022/03/04 00:11:35;;;;;;;;;66.00;52.25;;;;;36.28;16.85;101156.78;5097137;27;45362;-80
2022/03/04 00:14:00;;;;;;;;;64.25;52.00;;;;;36.57;16.71;101162.63;5097549;27;45635;-80
2022/03/04 00:16:26;;;;;;;;;64.50;52.50;;;;;36.54;16.81;101149.97;5097720;27;45620;-80
2022/03/04 00:19:06;;;;;;;;;66.50;52.75;;;;;36.64;16.41;101162.97;5097592;27;46097;-80
2022/03/04 00:21:43;;;;;;;;;69.00;54.00;;;;;36.68;16.13;101157.06;5097526;27;45400;-80
2022/03/04 00:24:10;;;;;;;;;69.50;55.75;;;;;35.92;16.49;101078.75;5097649;27;45357;-80
2022/03/04 00:26:37;;;;;;;;;70.50;54.25;;;;;35.74;17.30;101112.38;5097055;27;45370;-80
2022/03/04 00:29:03;;;;;;;;;68.00;54.00;;;;;35.83;17.04;101122.69;5097526;27;45315;-80
2022/03/04 00:31:28;;;;;;;;;69.25;54.25;;;;;36.29;16.60;101141.94;5097074;27;45434;-80
2022/03/04 00:33:54;;;;;;;;;65.00;51.00;;;;;36.38;16.67;101111.69;5097080;27;45437;-80
2022/03/04 00:36:23;;;;;;;;;68.00;53.25;;;;;36.39;16.07;101102.38;5079054;27;45573;-80
2022/03/04 00:38:53;;;;;;;;;65.50;51.25;;;;;36.45;16.38;101098.22;5096945;27;46286;-80
2022/03/04 00:41:21;;;;;;;;;60.50;49.00;;;;;36.60;16.35;101120.00;5096860;27;45478;-80
2022/03/04 00:43:48;;;;;;;;;64.00;52.00;;;;;36.68;16.07;101121.13;5097042;27;45439;-81
2022/03/04 00:46:14;;;;;;;;;64.25;51.00;;;;;36.46;15.76;101085.31;5096756;27;45441;-80
2022/03/04 00:48:40;;;;;;;;;63.25;49.25;;;;;36.61;16.00;101127.31;5096874;27;45664;-80
2022/03/04 00:51:06;;;;;;;;;72.50;56.25;;;;;36.39;16.12;101096.00;5096937;27;45346;-80
2022/03/04 00:53:31;;;;;;;;;72.00;55.75;;;;;36.39;16.20;101096.88;5078649;27;45386;-80
2022/03/04 00:55:57;;;;;;;;;69.75;53.75;;;;;36.71;16.34;101131.91;5096518;27;45371;-80
2022/03/04 00:58:23;;;;;;;;;66.50;53.50;;;;;36.56;16.46;101133.25;5078338;27;47093;-80
2022/03/04 01:00:49;;;;;;;;;64.25;51.50;;;;;36.55;16.25;101120.41;5096617;27;45330;-80
2022/03/04 01:03:14;;;;;;;;;66.00;52.00;;;;;36.69;16.66;101146.88;5085623;27;45407;-80
2022/03/04 01:05:40;;;;;;;;;64.25;51.00;;;;;36.65;16.30;101142.63;5076470;28;45451;-80
2022/03/04 01:08:05;;;;;;;;;66.50;52.75;;;;;36.08;16.59;101051.63;5076505;28;46483;-80
2022/03/04 01:10:31;;;;;;;;;64.75;53.00;;;;;36.56;16.25;101136.88;5075757;28;45408;-80
2022/03/04 01:12:56;;;;;;;;;64.25;53.00;;;;;36.60;16.19;101128.31;5058107;28;45445;-80
2022/03/04 01:15:21;;;;;;;;;63.50;51.25;;;;;36.44;16.21;101090.94;5076236;28;45432;-80
2022/03/04 01:17:47;;;;;;;;;69.25;53.75;;;;;36.76;16.02;101134.28;5074427;28;47245;-80
2022/03/04 01:20:12;;;;;;;;;69.75;55.25;;;;;36.83;15.81;101141.06;5074927;28;45874;-80
2022/03/04 01:22:38;;;;;;;;;63.50;51.25;;;;;36.84;16.29;101148.34;5058287;28;45463;-80
2022/03/04 01:25:04;;;;;;;;;66.25;52.00;;;;;36.70;16.05;101146.75;5057519;28;45351;-80
2022/03/04 01:27:29;;;;;;;;;62.00;50.75;;;;;36.36;15.76;101075.03;5076196;28;46928;-80
2022/03/04 01:29:55;;;;;;;;;63.00;51.25;;;;;36.85;15.75;101146.47;5075710;28;45324;-80
2022/03/04 01:32:20;;;;;;;;;66.00;52.00;;;;;36.64;15.81;101103.06;5076109;28;45379;-80
2022/03/04 01:34:45;;;;;;;;;66.50;53.75;;;;;36.65;15.83;101103.94;5075860;28;45636;-80
2022/03/04 01:37:12;;;;;;;;;65.25;54.00;;;;;36.82;15.93;101138.44;5075790;28;45403;-80
2022/03/04 01:39:38;;;;;;;;;64.75;53.00;;;;;36.77;15.68;101136.03;5075575;28;45399;-80
2022/03/04 01:42:03;;;;;;;;;64.25;51.00;;;;;36.64;16.43;101135.34;5075722;28;45497;-79
2022/03/04 01:44:29;;;;;;;;;67.25;54.00;;;;;36.61;16.52;101139.25;5075829;28;45598;-80
2022/03/04 01:46:56;;;;;;;;;68.00;54.00;;;;;36.45;15.95;101120.34;5075507;28;46096;-80
2022/03/04 01:49:21;;;;;;;;;65.75;51.50;;;;;36.43;16.51;101138.03;5075777;28;45463;-79
2022/03/04 01:51:47;;;;;;;;;67.25;54.00;;;;;36.02;16.97;101137.72;5075629;28;45434;-79
2022/03/04 01:54:12;;;;;;;;;68.75;54.50;;;;;35.40;17.07;101123.38;5075757;28;45371;-80
2022/03/04 01:56:38;;;;;;;;;67.75;55.00;;;;;35.10;17.37;101118.44;5075537;28;45605;-80
2022/03/04 01:59:03;;;;;;;;;70.00;55.00;;;;;34.77;17.97;101111.75;5078657;28;45222;-79
2022/03/04 02:01:30;;;;;;;;;70.75;55.75;;;;;34.38;17.61;101084.44;5079629;28;45298;-80
2022/03/04 02:03:55;;;;;;;;;68.75;53.75;;;;;34.87;18.03;101132.16;5079037;28;45280;-80
2022/03/04 02:06:21;;;;;;;;;68.00;53.50;;;;;34.68;17.33;101086.69;5079100;28;45223;-81
2022/03/04 02:08:47;;;;;;;;;69.50;54.75;;;;;34.60;17.77;101107.56;5078772;28;45189;-82
2022/03/04 02:11:12;;;;;;;;;69.75;54.25;;;;;34.45;17.83;101093.97;5060811;28;45455;-82
2022/03/04 02:13:39;;;;;;;;;68.00;53.75;;;;;34.65;17.35;101088.81;5079329;28;45400;-82
2022/03/04 02:16:12;;;;;;;;;68.00;53.50;;;;;34.87;17.52;101088.91;5077696;28;47250;-82
2022/03/04 02:18:37;;;;;;;;;66.75;53.25;;;;;35.12;16.98;101081.47;5078985;28;45464;-82
2022/03/04 02:21:07;;;;;;;;;66.50;53.00;;;;;35.63;16.64;101113.25;5078910;28;45461;-82
2022/03/04 02:23:33;;;;;;;;;70.25;54.25;;;;;35.58;16.83;101089.78;5078915;28;45371;-82
2022/03/04 02:25:59;;;;;;;;;64.50;50.25;;;;;35.55;16.63;101074.38;5077244;28;47196;-82
2022/03/04 02:28:25;;;;;;;;;69.00;52.25;;;;;35.68;16.66;101094.44;5078942;28;45254;-82
2022/03/04 02:30:50;;;;;;;;;65.50;52.00;;;;;35.69;16.69;101089.78;5060561;28;45284;-82
2022/03/04 02:33:15;;;;;;;;;60.75;49.75;;;;;35.50;16.20;101054.53;5078766;28;45415;-82
2022/03/04 02:35:42;;;;;;;;;60.75;49.00;;;;;35.73;16.23;101077.50;5077413;28;47461;-82
2022/03/04 02:38:07;;;;;;;;;64.00;52.00;;;;;35.51;16.44;101051.69;5077072;28;46315;-82
2022/03/04 02:40:33;;;;;;;;;65.00;52.75;;;;;35.71;16.04;101090.53;5080663;27;45503;-82
2022/03/04 02:42:58;;;;;;;;;31.00;31.00;;;;;35.69;16.29;101073.22;5099243;27;45318;-82
2022/03/04 02:45:25;;;;;;;;;68.25;52.25;;;;;35.79;16.00;101106.47;5099125;27;46452;-82
2022/03/04 02:47:51;;;;;;;;;65.50;51.75;;;;;35.65;16.47;101077.25;5099082;27;45793;-82
2022/03/04 02:50:16;;;;;;;;;62.75;50.00;;;;;35.59;16.27;101078.63;5099348;27;45337;-82
2022/03/04 02:52:42;;;;;;;;;60.50;48.00;;;;;35.52;16.41;101096.69;5098584;27;45434;-82
2022/03/04 02:55:11;;;;;;;;;66.00;52.00;;;;;35.40;16.73;101068.22;5080291;27;48045;-82
2022/03/04 02:57:38;;;;;;;;;66.50;52.75;;;;;35.44;16.57;101075.22;5098974;27;45354;-82
2022/03/04 03:00:05;;;;;;;;;69.75;53.50;;;;;34.90;16.92;101084.16;5080333;27;45371;-82
2022/03/04 03:02:30;;;;;;;;;65.00;50.00;;;;;34.86;16.97;101084.38;5097647;27;45425;-82
2022/03/04 03:04:56;;;;;;;;;57.25;48.00;;;;;35.05;16.76;101080.19;5079908;27;47899;-82
2022/03/04 03:07:21;;;;;;;;;64.75;50.50;;;;;35.24;16.93;101087.00;5098226;27;45472;-82
2022/03/04 03:09:46;;;;;;;;;67.25;52.00;;;;;35.25;16.24;101075.84;5080294;27;45376;-83
2022/03/04 03:12:12;;;;;;;;;65.50;51.75;;;;;35.60;16.34;101124.56;5080256;27;45510;-82
2022/03/04 03:14:37;;;;;;;;;63.75;50.25;;;;;35.54;16.49;101106.63;5098473;27;45606;-83
2022/03/04 03:17:03;;;;;;;;;65.25;52.25;;;;;35.45;16.03;101087.16;5098501;27;45415;-83
2022/03/04 03:19:29;;;;;;;;;67.50;52.25;;;;;34.72;16.74;101054.25;5080140;27;45373;-83
2022/03/04 03:21:54;;;;;;;;;70.25;54.00;;;;;35.01;16.85;101111.78;5079605;27;45584;-83
2022/03/04 03:24:19;;;;;;;;;62.25;50.25;;;;;35.13;16.30;101083.19;5080041;27;48411;-82
2022/03/04 03:26:45;;;;;;;;;65.25;51.00;;;;;35.32;16.21;101081.78;5080018;27;45323;-82
2022/03/04 03:29:10;;;;;;;;;57.25;47.75;;;;;35.41;16.20;101086.53;5098307;27;45411;-82
2022/03/04 03:31:35;;;;;;;;;63.50;51.00;;;;;35.30;16.07;101073.63;5080078;27;45293;-82
2022/03/04 03:34:01;;;;;;;;;62.25;52.75;;;;;35.15;16.50;101070.19;5079635;27;48117;-82
2022/03/04 03:36:26;;;;;;;;;65.00;49.75;;;;;34.97;16.35;101078.03;5097986;27;45339;-82
2022/03/04 03:38:51;;;;;;;;;66.25;53.00;;;;;34.37;16.49;101063.38;5098404;27;45333;-82
2022/03/04 03:41:17;;;;;;;;;66.50;52.00;;;;;34.69;16.81;101098.59;5098172;27;45631;-82
2022/03/04 03:43:43;;;;;;;;;64.50;52.00;;;;;35.16;16.42;101118.81;5098271;27;46545;-82
2022/03/04 03:46:09;;;;;;;;;39.50;35.50;;;;;35.03;16.22;101077.53;5098093;27;45356;-82
2022/03/04 03:48:34;;;;;;;;;59.00;48.50;;;;;35.37;16.23;101112.59;5098023;27;45337;-82
2022/03/04 03:51:00;;;;;;;;;63.50;49.00;;;;;35.41;16.16;101122.38;5079531;27;45477;-82
2022/03/04 03:53:25;;;;;;;;;64.75;51.00;;;;;35.04;16.14;101112.38;5097875;27;46230;-82
2022/03/04 03:55:51;;;;;;;;;64.00;52.25;;;;;34.88;16.12;101098.03;5097847;27;45501;-82
2022/03/04 03:58:16;;;;;;;;;60.50;51.00;;;;;34.71;16.32;101093.81;5097772;27;45602;-82
2022/03/04 04:00:42;;;;;;;;;64.25;51.25;;;;;34.78;16.59;101122.69;5098017;27;45452;-82
2022/03/04 04:03:08;;;;;;;;;62.50;51.75;;;;;34.99;16.11;101136.72;5097689;27;45563;-82
2022/03/04 04:05:33;;;;;;;;;65.25;50.75;;;;;34.59;16.61;101072.75;5097930;27;45300;-82
2022/03/04 04:07:58;;;;;;;;;60.75;48.25;;;;;34.60;16.43;101067.13;5097672;27;45385;-82
2022/03/04 04:10:24;;;;;;;;;65.50;52.00;;;;;34.85;16.47;101084.50;5097638;27;45327;-82
2022/03/04 04:12:49;;;;;;;;;64.50;51.00;;;;;34.52;16.97;101106.28;5097618;27;45259;-82
2022/03/04 04:15:15;;;;;;;;;63.50;51.50;;;;;34.52;16.73;101128.31;5097491;27;45339;-82
2022/03/04 04:17:40;;;;;;;;;63.50;51.00;;;;;34.23;16.64;101089.19;5079552;27;45353;-83
2022/03/04 04:20:06;;;;;;;;;62.50;50.00;;;;;34.33;16.97;101111.44;5075017;28;45364;-82
2022/03/04 04:22:31;;;;;;;;;59.25;47.75;;;;;34.60;16.81;101132.34;5097092;27;46341;-82
2022/03/04 04:24:57;;;;;;;;;63.50;50.00;;;;;34.50;16.89;101107.38;5078950;27;45299;-82
2022/03/04 04:27:22;;;;;;;;;64.25;52.75;;;;;34.64;16.81;101120.09;5097457;27;45235;-81
2022/03/04 04:29:47;;;;;;;;;64.50;51.50;;;;;34.69;17.02;101128.91;5097210;27;45562;-83
2022/03/04 04:32:13;;;;;;;;;72.25;56.25;;;;;34.50;17.20;101094.50;5096767;27;54949;-80
2022/03/04 04:34:38;;;;;;;;;66.25;53.75;;;;;34.66;16.86;101096.94;5078704;27;45425;-86
2022/03/04 04:37:04;;;;;;;;;70.50;53.25;;;;;34.80;16.84;101090.41;5079264;27;45264;-83
2022/03/04 04:39:29;;;;;;;;;73.00;57.50;;;;;35.06;16.83;101133.44;5097268;27;45468;-82
2022/03/04 04:41:54;;;;;;;;;63.50;51.00;;;;;35.14;16.47;101123.56;5095878;27;47864;-82
2022/03/04 04:44:20;;;;;;;;;67.00;53.25;;;;;35.21;16.50;101132.25;5097048;27;45315;-81
2022/03/04 04:46:45;;;;;;;;;65.25;51.25;;;;;35.10;16.62;101137.72;5096583;27;45440;-85
2022/03/04 04:49:11;;;;;;;;;66.50;54.00;;;;;35.11;16.54;101140.38;5097543;27;45593;-85
2022/03/04 04:51:36;;;;;;;;;65.75;52.25;;;;;35.19;16.42;101125.94;5096049;27;46876;-85
2022/03/04 04:54:04;;;;;;;;;60.00;50.50;;;;;35.17;16.49;101131.59;5097197;27;45453;-86
2022/03/04 04:56:30;;;;;;;;;59.25;46.50;;;;;35.04;16.17;101097.72;5095016;27;45483;-82
2022/03/04 04:58:56;;;;;;;;;59.75;48.75;;;;;35.16;16.12;101121.59;5094143;27;45445;-85
2022/03/04 05:01:21;;;;;;;;;64.50;50.25;;;;;35.34;15.89;101132.16;5092074;27;47944;-84
2022/03/04 05:03:46;;;;;;;;;65.50;52.00;;;;;35.28;16.32;101140.91;5095807;27;45391;-85
2022/03/04 05:06:12;;;;;;;;;70.00;52.50;;;;;35.47;16.00;101152.25;5078549;27;45394;-85
2022/03/04 05:08:37;;;;;;;;;62.00;51.00;;;;;35.16;16.30;101132.63;5095819;27;45248;-85
2022/03/04 05:11:03;;;;;;;;;62.00;49.50;;;;;35.30;16.28;101155.44;5096400;27;46221;-84
2022/03/04 05:13:29;;;;;;;;;63.50;50.50;;;;;35.21;16.15;101127.59;5096744;27;45520;-82
2022/03/04 05:15:55;;;;;;;;;66.50;51.25;;;;;35.12;16.31;101127.44;5095910;27;45706;-85
2022/03/04 05:18:20;;;;;;;;;64.25;50.25;;;;;35.29;16.23;101145.41;5082574;27;45424;-81
2022/03/04 05:20:45;;;;;;;;;64.75;51.25;;;;;35.32;16.44;101153.50;5076342;27;45398;-82
2022/03/04 05:23:11;;;;;;;;;69.25;55.00;;;;;35.20;16.35;101147.91;5074577;28;45385;-81
2022/03/04 05:25:36;;;;;;;;;65.25;51.00;;;;;35.32;16.17;101162.63;5075117;28;45324;-82
2022/03/04 05:28:02;;;;;;;;;59.50;49.50;;;;;35.11;16.30;101120.19;5076159;28;45422;-81
2022/03/04 05:30:28;;;;;;;;;63.75;51.00;;;;;34.99;16.43;101125.69;5075692;28;46346;-82
2022/03/04 05:32:53;;;;;;;;;61.75;49.25;;;;;35.02;16.38;101114.41;5073369;28;45388;-81
2022/03/04 05:35:18;;;;;;;;;57.00;48.25;;;;;35.17;16.39;101144.50;5075998;28;45308;-81
2022/03/04 05:37:44;;;;;;;;;60.00;49.25;;;;;35.17;16.47;101131.59;5076088;28;45264;-82
2022/03/04 05:40:09;;;;;;;;;63.50;52.00;;;;;35.22;16.34;101125.72;5075841;28;45368;-82
2022/03/04 05:42:35;;;;;;;;;66.00;53.00;;;;;35.55;16.08;101182.84;5074501;28;45496;-82
2022/03/04 05:45:00;;;;;;;;;70.00;53.25;;;;;35.35;16.36;101150.47;5075576;28;45309;-82
2022/03/04 05:47:26;;;;;;;;;65.75;48.75;;;;;35.20;16.42;101138.75;5074423;28;45421;-82
2022/03/04 05:49:51;;;;;;;;;64.25;51.00;;;;;35.26;16.42;101135.53;5075754;28;45635;-82
2022/03/04 05:52:16;;;;;;;;;64.50;52.00;;;;;35.54;16.39;101180.22;5074450;28;45563;-81
2022/03/04 05:54:42;;;;;;;;;58.75;45.75;;;;;35.15;16.51;101139.13;5057755;28;45556;-82
2022/03/04 05:57:07;;;;;;;;;60.75;49.00;;;;;35.48;16.50;101184.34;5076224;27;45477;-82
2022/03/04 05:59:33;;;;;;;;;67.00;51.00;;;;;35.31;16.43;101171.91;5081694;27;46367;-82
2022/03/04 06:01:58;;;;;;;;;68.50;54.25;;;;;35.33;16.44;101144.19;5074430;28;45638;-82
2022/03/04 06:04:24;;;;;;;;;65.00;52.50;;;;;35.38;16.39;101158.50;5075570;28;45359;-82
2022/03/04 06:06:49;;;;;;;;;63.75;50.75;;;;;35.13;16.43;101140.25;5074053;28;45578;-82
2022/03/04 06:09:14;;;;;;;;;64.25;49.75;;;;;35.26;16.69;101148.41;5075472;27;46469;-82
2022/03/04 06:11:40;;;;;;;;;65.25;51.50;;;;;35.35;16.55;101180.81;5089681;27;45418;-82
2022/03/04 06:14:06;;;;;;;;;61.25;49.50;;;;;35.33;16.71;101183.72;5095100;27;45272;-81
2022/03/04 06:16:32;;;;;;;;;66.25;52.75;;;;;35.45;16.52;101200.28;5095612;27;45608;-81
2022/03/04 06:18:58;;;;;;;;;64.75;50.50;;;;;35.25;16.39;101164.09;5095734;27;45480;-82
2022/03/04 06:21:23;;;;;;;;;60.25;49.00;;;;;35.40;16.72;101186.84;5095881;27;45315;-82
2022/03/04 06:23:48;;;;;;;;;60.50;49.75;;;;;35.32;16.64;101172.81;5095619;27;45510;-82
2022/03/04 06:26:15;;;;;;;;;62.25;49.75;;;;;35.44;16.68;101210.41;5095856;27;45232;-81
2022/03/04 06:28:41;;;;;;;;;62.00;50.50;;;;;35.25;16.50;101196.28;5076997;27;47222;-81
2022/03/04 06:31:06;;;;;;;;;67.25;51.00;;;;;35.42;16.56;101219.84;5077251;27;45841;-82
2022/03/04 06:33:32;;;;;;;;;57.00;47.25;;;;;35.02;16.63;101139.22;5077399;27;45498;-82
2022/03/04 06:36:05;;;;;;;;;59.00;47.00;;;;;35.40;16.53;101185.97;5095701;27;45416;-82
2022/03/04 06:38:32;;;;;;;;;61.50;50.50;;;;;35.42;16.69;101172.94;5095229;27;45472;-82
2022/03/04 06:40:58;;;;;;;;;64.25;50.50;;;;;35.40;16.63;101184.06;5095503;27;45389;-82
2022/03/04 06:43:23;;;;;;;;;65.25;50.75;;;;;35.48;16.52;101192.63;5077290;27;45517;-82
2022/03/04 06:45:49;;;;;;;;;64.00;50.00;;;;;35.66;16.50;101220.63;5080674;27;45453;-82
2022/03/04 06:48:18;;;;;;;;;58.50;49.25;;;;;35.60;16.75;101211.97;5097629;27;47875;-82
2022/03/04 06:50:43;;;;;;;;;63.75;51.50;;;;;35.56;16.65;101214.09;5098855;27;45380;-81
2022/03/04 06:53:09;;;;;;;;;60.25;49.25;;;;;35.48;16.53;101220.22;5098806;27;45287;-82
2022/03/04 06:55:35;;;;;;;;;68.25;53.75;;;;;35.34;16.76;101184.56;5097512;27;46100;-82
2022/03/04 06:58:00;;;;;;;;;60.50;50.00;;;;;35.26;16.37;101170.47;5079408;27;47031;-82
2022/03/04 07:00:26;;;;;;;;;60.50;48.75;;;;;35.67;16.52;101250.00;5078418;28;45714;-82
2022/03/04 07:02:52;;;;;;;;;63.50;50.25;;;;;35.45;16.50;101209.44;5078387;28;45356;-82
2022/03/04 07:05:18;;;;;;;;;67.75;53.50;;;;;35.58;16.59;101241.56;5086515;27;45488;-82
2022/03/04 07:07:43;;;;;;;;;68.50;52.75;;;;;35.43;16.69;101222.47;5098538;27;45429;-82
2022/03/04 07:10:09;;;;;;;;;60.00;49.50;;;;;35.29;16.77;101193.19;5098893;27;45373;-82
2022/03/04 07:12:35;;;;;;;;;67.00;52.50;;;;;35.35;16.68;101203.75;5098305;27;45620;-82
2022/03/04 07:15:01;;;;;;;;;58.25;49.50;;;;;35.41;16.64;101202.41;5098453;27;45537;-82
2022/03/04 07:17:26;;;;;;;;;60.00;47.00;;;;;35.56;17.02;101255.50;5098045;27;46090;-82
2022/03/04 07:19:51;;;;;;;;;63.25;51.25;;;;;35.34;17.00;101243.38;5098375;27;45465;-82
2022/03/04 07:22:17;;;;;;;;;64.00;50.75;;;;;35.40;16.51;101255.81;5097366;27;45491;-82
2022/03/04 07:24:42;;;;;;;;;59.50;47.75;;;;;35.17;16.76;101216.22;5098185;27;45623;-82
2022/03/04 07:27:07;;;;;;;;;62.25;50.00;;;;;35.47;16.64;101254.34;5098013;27;45480;-82
2022/03/04 07:29:33;;;;;;;;;61.75;50.00;;;;;35.56;16.71;101272.06;5079799;27;45404;-82
2022/03/04 07:31:59;;;;;;;;;63.25;50.25;;;;;35.52;16.60;101263.13;5098411;27;45395;-82
2022/03/04 07:34:24;;;;;;;;;63.75;51.00;;;;;35.58;16.59;101271.94;5098007;27;47058;-82
2022/03/04 07:36:51;;;;;;;;;67.75;53.00;;;;;35.30;16.75;101221.66;5080346;27;46322;-82
2022/03/04 07:39:17;;;;;;;;;67.00;52.50;;;;;35.53;16.57;101275.06;5077573;28;45367;-82
2022/03/04 07:41:43;;;;;;;;;65.75;50.00;;;;;35.19;16.55;101216.97;5077302;28;45393;-82
2022/03/04 07:44:10;;;;;;;;;62.50;48.00;;;;;35.45;16.73;101258.22;5077656;28;45451;-82
2022/03/04 07:46:36;;;;;;;;;61.25;46.50;;;;;35.21;16.54;101212.22;5077339;28;46121;-82
2022/03/04 07:49:03;;;;;;;;;61.25;50.00;;;;;35.42;16.72;101231.75;5059034;28;45462;-81
2022/03/04 07:51:28;;;;;;;;;64.00;49.00;;;;;35.37;16.69;101234.88;5059976;28;45461;-82
2022/03/04 07:53:53;;;;;;;;;60.75;48.75;;;;;35.69;16.57;101271.97;5077149;28;45538;-82
2022/03/04 07:56:19;;;;;;;;;57.00;47.25;;;;;35.74;16.10;101266.97;5075958;28;45272;-81
2022/03/04 07:58:44;;;;;;;;;58.75;45.75;;;;;35.43;16.74;101224.34;5065073;27;46017;-82
2022/03/04 08:01:09;;;;;;;;;64.00;49.75;;;;;35.75;16.27;101279.75;5097736;27;45377;-82
2022/03/04 08:03:36;;;;;;;;;56.25;46.00;;;;;35.77;16.25;101280.50;5097023;27;45526;-81
2022/03/04 08:06:01;;;;;;;;;60.50;48.50;;;;;35.47;16.35;101215.72;5075692;27;46314;-83
2022/03/04 08:08:27;;;;;;;;;53.67;44.33;;;;;35.66;16.34;101239.09;5058773;28;45366;-82
2022/03/04 08:10:53;;;;;;;;;57.67;45.00;;;;;35.71;16.28;101237.72;5095073;27;45363;-81
2022/03/04 08:13:18;;;;;;;;;59.00;45.67;;;;;35.49;16.21;101216.47;5097925;27;45403;-83
2022/03/04 08:15:44;;;;;;;;;57.00;45.67;;;;;35.48;16.77;101209.19;5095658;27;48096;-80
2022/03/04 08:18:09;;;;;;;;;57.67;45.33;;;;;35.79;16.29;101242.59;5093622;27;45473;-81
2022/03/04 08:20:35;;;;;;;;;56.33;46.00;;;;;35.91;16.31;101261.97;5095412;27;45476;-80
2022/03/04 08:23:00;;;;;;;;;61.00;48.00;;;;;35.58;16.51;101238.81;5097003;27;45830;-81
2022/03/04 08:25:26;;;;;;;;;61.50;48.50;;;;;35.79;16.42;101288.66;5096788;27;45463;-78
2022/03/04 08:27:52;;;;;;;;;55.00;45.00;;;;;35.75;16.25;101309.22;5093916;27;45642;-79
2022/03/04 08:30:18;;;;;;;;;58.25;45.50;;;;;35.32;16.37;101258.31;5090636;27;45394;-79
2022/03/04 08:32:44;;;;;;;;;56.50;46.75;;;;;35.60;16.11;101294.75;5076740;27;45398;-79
2022/03/04 08:35:09;;;;;;;;;58.00;48.00;;;;;35.60;16.60;101305.78;5089390;27;45667;-78
2022/03/04 08:37:38;;;;;;;;;54.67;43.33;;;;;35.48;16.09;101274.53;5097122;27;45346;-81
2022/03/04 08:40:06;;;;;;;;;63.33;47.33;;;;;35.77;16.40;101307.22;5078703;27;45396;-78
2022/03/04 08:42:31;;;;;;;;;62.67;48.00;;;;;35.83;16.31;101312.31;5096570;27;45560;-78
2022/03/04 08:44:57;;;;;;;;;63.33;48.00;;;;;35.86;16.13;101298.25;5080315;27;46833;-78
2022/03/04 08:47:22;;;;;;;;;56.33;46.00;;;;;36.05;15.86;101303.19;5097035;27;45445;-79
2022/03/04 08:49:48;;;;;;;;;56.00;45.50;;;;;36.21;16.00;101314.72;5078347;27;45540;-80
2022/03/04 08:52:13;;;;;;;;;59.75;48.50;;;;;35.85;15.62;101253.22;5078594;27;45316;-79
2022/03/04 08:54:39;;;;;;;;;60.75;50.00;;;;;36.05;15.78;101279.19;5080968;27;45507;-78
2022/03/04 08:57:05;;;;;;;;;58.50;46.75;;;;;36.00;15.48;101264.88;5088134;27;45462;-80
2022/03/04 08:59:31;;;;;;;;;61.50;49.75;;;;;36.26;16.14;101313.47;5065552;28;45502;-80
2022/03/04 09:01:56;;;;;;;;;58.67;48.67;;;;;36.26;15.76;101321.75;5076562;27;45186;-79
2022/03/04 09:04:23;;;;;;;;;64.00;50.75;;;;;36.39;15.91;101325.34;5086744;27;45654;-82
2022/03/04 09:06:48;;;;;;;;;61.00;47.50;;;;;36.03;15.79;101252.72;5075433;27;45604;-83
2022/03/04 09:09:14;;;;;;;;;63.25;51.00;;;;;36.25;15.65;101268.41;5076494;27;45557;-83
2022/03/04 09:11:39;;;;;;;;;65.00;51.25;;;;;36.56;15.97;101310.13;5070495;27;46025;-81
2022/03/04 09:14:05;;;;;;;;;56.50;45.50;;;;;36.71;15.81;101341.13;5070605;27;47113;-82
2022/03/04 09:16:30;;;;;;;;;64.50;50.75;;;;;36.58;15.57;101305.34;5070024;27;45577;-82
2022/03/04 09:18:56;;;;;;;;;62.25;50.25;;;;;36.48;15.52;101296.06;5084068;27;45931;-83
2022/03/04 09:21:22;;;;;;;;;61.75;49.25;;;;;36.69;15.41;101315.50;5069752;27;45587;-81
2022/03/04 09:23:47;;;;;;;;;65.25;51.25;;;;;36.84;15.46;101325.31;5070449;27;48342;-82
2022/03/04 09:26:12;;;;;;;;;58.25;46.00;;;;;36.61;15.67;101271.94;5081998;27;45495;-82
2022/03/04 09:28:38;;;;;;;;;59.50;49.00;;;;;36.96;15.66;101300.41;5067713;27;45483;-82
2022/03/04 09:31:03;;;;;;;;;62.00;50.00;;;;;36.89;15.68;101289.88;5062014;27;45461;-83
2022/03/04 09:33:29;;;;;;;;;65.75;50.50;;;;;37.13;15.12;101316.47;5069912;27;46904;-83
2022/03/04 09:35:54;;;;;;;;;67.75;52.25;;;;;37.02;15.28;101291.56;5068568;27;45533;-83
2022/03/04 09:38:20;;;;;;;;;69.75;54.00;;;;;37.33;15.40;101322.19;5068365;27;45438;-83
2022/03/04 09:40:48;;;;;;;;;68.25;51.75;;;;;37.17;15.42;101298.56;5064295;27;45548;-84
2022/03/04 09:43:17;;;;;;;;;63.50;49.00;;;;;37.50;15.11;101331.81;5081680;27;45457;-83
2022/03/04 09:45:44;;;;;;;;;61.25;49.50;;;;;36.78;15.37;101222.63;5081908;27;45465;-83
2022/03/04 09:48:12;;;;;;;;;59.75;48.00;;;;;37.43;15.08;101345.31;5082021;27;45687;-82
2022/03/04 09:50:38;;;;;;;;;61.50;48.75;;;;;37.48;15.58;101339.38;5079856;27;45404;-83
2022/03/04 09:53:09;;;;;;;;;61.50;49.50;;;;;37.44;15.43;101341.50;5080295;27;46014;-83
2022/03/04 09:55:34;;;;;;;;;66.50;52.00;;;;;37.45;15.34;101323.91;5078061;27;45501;-83
2022/03/04 09:58:00;;;;;;;;;62.00;50.25;;;;;37.48;14.73;101315.31;5075627;27;45494;-82
2022/03/04 10:00:26;;;;;;;;;61.00;48.75;;;;;37.24;14.68;101258.31;5067298;27;45937;-79
2022/03/04 10:02:52;;;;;;;;;68.75;52.50;;;;;37.48;15.06;101295.06;5062611;28;46213;-81
2022/03/04 10:05:17;;;;;;;;;63.75;51.00;;;;;37.30;15.38;101309.50;5080530;27;45399;-83
2022/03/04 10:07:49;;;;;;;;;64.50;51.25;;;;;37.30;15.22;101289.25;5052367;28;45497;-84
2022/03/04 10:10:17;;;;;;;;;68.00;54.25;;;;;37.38;15.29;101295.00;5074560;27;45385;-80
2022/03/04 10:12:50;;;;;;;;;60.50;47.75;;;;;37.47;14.91;101294.22;5070847;27;45920;-83
2022/03/04 10:15:17;;;;;;;;;59.25;48.75;;;;;37.30;14.74;101256.94;5076618;27;45563;-84
2022/03/04 10:17:56;;;;;;;;;63.50;51.75;;;;;37.65;14.47;101290.84;5066822;27;45653;-81
2022/03/04 10:20:40;;;;;;;;;67.50;53.00;;;;;37.82;15.03;101317.97;5083784;27;45605;-81
2022/03/04 10:23:13;;;;;;;;;67.25;51.50;;;;;37.98;14.85;101336.00;5071489;27;48551;-83
2022/03/04 10:25:42;;;;;;;;;65.00;51.00;;;;;38.04;14.45;101333.53;5083255;27;45478;-83
2022/03/04 10:28:09;;;;;;;;;65.00;50.50;;;;;37.82;14.96;101286.59;5084184;27;45604;-86
2022/03/04 10:30:35;;;;;;;;;64.50;51.75;;;;;37.64;14.83;101256.75;5079433;27;45613;-87
2022/03/04 10:33:12;;;;;;;;;70.25;55.75;;;;;37.91;14.38;101307.94;5065669;27;46446;-85
2022/03/04 10:35:39;;;;;;;;;65.50;52.25;;;;;37.72;14.66;101292.94;5090465;27;45573;-86
2022/03/04 10:38:05;;;;;;;;;65.00;52.50;;;;;38.03;14.88;101336.44;5069466;27;45504;-86
2022/03/04 10:40:36;;;;;;;;;64.00;50.50;;;;;38.05;14.34;101348.28;5059612;27;45610;-86
2022/03/04 10:43:07;;;;;;;;;62.00;49.50;;;;;37.62;14.71;101294.75;5071883;27;47621;-86
2022/03/04 10:45:42;;;;;;;;;68.00;51.50;;;;;37.59;15.02;101306.94;5075166;27;45577;-86
2022/03/04 10:48:15;;;;;;;;;64.75;52.25;;;;;37.33;14.74;101253.00;5077546;27;45485;-86
2022/03/04 10:50:44;;;;;;;;;68.00;53.25;;;;;37.67;14.90;101305.44;5067775;27;45619;-86
2022/03/04 10:53:18;;;;;;;;;65.00;50.50;;;;;37.65;14.89;101308.34;5079270;27;46269;-84
2022/03/04 10:55:51;;;;;;;;;67.50;52.00;;;;;37.86;14.50;101326.84;5074689;27;45593;-83
2022/03/04 10:58:23;;;;;;;;;69.75;53.50;;;;;37.66;14.79;101278.75;5083927;27;45579;-84
2022/03/04 11:00:53;;;;;;;;;65.00;51.00;;;;;37.65;14.78;101257.59;5078183;27;45485;-84
2022/03/04 11:03:22;;;;;;;;;66.00;53.00;;;;;38.22;14.60;101338.50;5078783;27;47098;-84
2022/03/04 11:05:49;;;;;;;;;67.75;52.25;;;;;38.25;14.21;101343.75;5079693;27;45858;-84